createdAt,value
2019-05-22T00:00:22.109Z,97821.00
2019-05-22T00:04:25.212Z,97815.00
2019-05-22T00:08:26.960Z,97830.00
2019-05-22T00:12:28.200Z,97820.00
2019-05-22T00:16:30.993Z,97833.00
2019-05-22T00:20:32.963Z,97827.00
2019-05-22T00:24:34.753Z,97824.00
2019-05-22T00:28:37.959Z,97835.00
2019-05-22T00:32:39.074Z,97826.00
2019-05-22T00:36:40.167Z,97831.00
2019-05-22T00:40:51.881Z,97835.00
2019-05-22T00:44:53.679Z,97831.00
2019-05-22T00:48:54.839Z,97835.00
2019-05-22T00:53:06.759Z,97845.00
2019-05-22T00:57:12.305Z,97843.00
2019-05-22T01:01:21.192Z,97847.00
2019-05-22T01:05:22.667Z,97847.00
2019-05-22T01:09:25.542Z,97850.00
2019-05-22T01:13:32.410Z,97847.00
2019-05-22T01:17:36.197Z,97860.00
2019-05-22T01:21:39.106Z,97853.00
2019-05-22T01:25:42.368Z,97863.00
2019-05-22T01:29:45.357Z,97858.00
2019-05-22T01:33:51.446Z,97858.00
2019-05-22T01:37:54.253Z,97854.00
2019-05-22T01:41:56.443Z,97858.00
2019-05-22T01:46:01.960Z,97861.00
2019-05-22T01:50:06.158Z,97862.00
2019-05-22T01:54:08.199Z,97860.00
2019-05-22T01:58:11.892Z,97855.00
2019-05-22T02:02:13.873Z,97857.00
2019-05-22T02:06:17.343Z,97860.00
2019-05-22T02:10:37.408Z,97864.00
2019-05-22T02:14:43.960Z,97862.00
2019-05-22T02:18:47.440Z,97861.00
2019-05-22T02:22:49.342Z,97862.00
2019-05-22T02:26:50.423Z,97863.00
2019-05-22T02:30:53.420Z,97866.00
2019-05-22T02:34:56.073Z,97859.00
2019-05-22T02:38:57.078Z,97859.00
2019-05-22T02:42:58.141Z,97859.00
2019-05-22T02:47:16.985Z,97862.00
2019-05-22T02:51:04.030Z,97867.00
2019-05-22T02:55:06.319Z,97859.00
2019-05-22T02:59:08.230Z,97865.00
2019-05-22T03:03:09.386Z,97865.00
2019-05-22T03:07:11.054Z,97867.00
2019-05-22T03:11:14.302Z,97866.00
2019-05-22T03:15:15.767Z,97864.00
2019-05-22T03:19:40.526Z,97863.00
2019-05-22T03:23:41.510Z,97871.00
2019-05-22T03:27:49.569Z,97871.00
2019-05-22T03:31:50.801Z,97884.00
2019-05-22T03:35:55.515Z,97883.00
2019-05-22T03:39:56.700Z,97900.00
2019-05-22T03:43:57.781Z,97890.00
2019-05-22T03:48:02.877Z,97886.00
2019-05-22T03:52:05.766Z,97900.00
2019-05-22T03:56:07.543Z,97898.00
2019-05-22T04:00:13.346Z,97908.00
2019-05-22T04:04:19.416Z,97913.00
2019-05-22T04:08:20.702Z,97909.00
2019-05-22T04:12:21.839Z,97916.00
2019-05-22T04:16:26.994Z,97917.00
2019-05-22T04:20:28.167Z,97928.00
2019-05-22T04:24:30.447Z,97926.00
2019-05-22T04:28:34.159Z,97923.00
2019-05-22T04:32:36.759Z,97930.00
2019-05-22T04:36:39.633Z,97931.00
2019-05-22T04:40:46.120Z,97929.00
2019-05-22T04:45:13.776Z,97930.00
2019-05-22T04:49:15.529Z,97938.00
2019-05-22T04:53:16.507Z,97941.00
2019-05-22T04:57:17.498Z,97938.00
2019-05-22T05:01:19.566Z,97942.00
2019-05-22T05:05:24.205Z,97952.00
2019-05-22T05:09:25.315Z,97961.00
2019-05-22T05:13:26.174Z,97960.00
2019-05-22T05:17:27.557Z,97958.00
2019-05-22T05:21:28.666Z,97960.00
2019-05-22T05:25:29.826Z,97966.00
2019-05-22T05:29:31.720Z,97965.00
2019-05-22T05:33:37.318Z,97977.00
2019-05-22T05:37:40.109Z,97963.00
2019-05-22T05:41:41.085Z,97974.00
2019-05-22T05:45:44.202Z,97983.00
2019-05-22T05:49:45.315Z,97979.00
2019-05-22T05:53:56.362Z,97978.00
2019-05-22T05:58:17.872Z,97993.00
2019-05-22T06:02:19.827Z,97995.00
2019-05-22T06:06:26.442Z,97997.00
2019-05-22T06:10:37.397Z,98000.00
2019-05-22T06:14:40.691Z,98000.00
2019-05-22T06:18:42.006Z,98002.00
2019-05-22T06:22:46.689Z,98001.00
2019-05-22T06:26:55.182Z,98006.00
2019-05-22T06:31:00.665Z,98008.00
2019-05-22T06:35:02.763Z,98017.00
2019-05-22T06:39:07.378Z,98014.00
2019-05-22T06:43:24.968Z,98011.00
2019-05-22T06:47:27.034Z,98021.00
2019-05-22T06:51:28.005Z,98022.00
2019-05-22T06:55:28.862Z,98032.00
2019-05-22T06:59:29.850Z,98026.00
2019-05-22T07:03:31.312Z,98033.00
2019-05-22T07:07:32.988Z,98034.00
2019-05-22T07:11:34.864Z,98045.00
2019-05-22T07:15:38.351Z,98059.00
2019-05-22T07:19:39.923Z,98062.00
2019-05-22T07:23:41.403Z,98058.00
2019-05-22T07:27:42.948Z,98056.00
2019-05-22T07:31:45.100Z,98059.00
2019-05-22T07:36:07.596Z,98055.00
2019-05-22T07:39:49.373Z,98059.00
2019-05-22T07:43:50.450Z,98060.00
2019-05-22T07:47:52.065Z,98060.00
2019-05-22T07:52:00.561Z,98063.00
2019-05-22T07:55:57.705Z,98076.00
2019-05-22T07:59:59.350Z,98078.00
2019-05-22T08:04:01.567Z,98081.00
2019-05-22T08:08:03.544Z,98085.00
2019-05-22T08:12:08.190Z,98084.00
2019-05-22T08:16:09.968Z,98093.00
2019-05-22T08:20:12.105Z,98093.00
2019-05-22T08:24:13.079Z,98086.00
2019-05-22T08:28:14.177Z,98096.00
2019-05-22T08:32:15.560Z,98106.00
2019-05-22T08:36:16.665Z,98105.00
2019-05-22T08:40:19.540Z,98105.00
2019-05-22T08:44:20.814Z,98108.00
2019-05-22T08:48:23.079Z,98115.00
2019-05-22T08:52:24.775Z,98120.00
2019-05-22T08:56:29.930Z,98125.00
2019-05-22T09:00:31.208Z,98129.00
2019-05-22T09:04:32.271Z,98128.00
2019-05-22T09:08:34.160Z,98136.00
2019-05-22T09:12:35.560Z,98133.00
2019-05-22T09:16:36.836Z,98145.00
2019-05-22T09:20:48.642Z,98138.00
2019-05-22T09:24:42.742Z,98134.00
2019-05-22T09:28:44.046Z,98141.00
2019-05-22T09:32:47.521Z,98153.00
2019-05-22T09:36:47.953Z,98143.00
2019-05-22T09:40:49.517Z,98148.00
2019-05-22T09:44:50.496Z,98152.00
2019-05-22T09:48:51.646Z,98153.00
2019-05-22T09:52:57.584Z,98158.00
2019-05-22T09:56:55.873Z,98155.00
2019-05-22T10:00:56.935Z,98146.00
2019-05-22T10:04:58.211Z,98164.00
2019-05-22T10:08:59.483Z,98165.00
2019-05-22T10:13:01.043Z,98168.00
2019-05-22T10:17:02.386Z,98174.00
2019-05-22T10:21:04.016Z,98182.00
2019-05-22T10:25:15.474Z,98189.00
2019-05-22T10:29:08.836Z,98180.00
2019-05-22T10:33:09.920Z,98190.00
2019-05-22T10:37:12.674Z,98188.00
2019-05-22T10:41:15.187Z,98199.00
2019-05-22T10:45:16.397Z,98200.00
2019-05-22T10:49:17.714Z,98198.00
2019-05-22T10:53:32.455Z,98198.00
2019-05-22T10:57:21.793Z,98203.00
2019-05-22T11:01:22.973Z,98198.00
2019-05-22T11:05:24.359Z,98206.00
2019-05-22T11:09:25.959Z,98198.00
2019-05-22T11:13:27.169Z,98203.00
2019-05-22T11:17:28.972Z,98210.00
2019-05-22T11:21:31.348Z,98216.00
2019-05-22T11:25:33.084Z,98219.00
2019-05-22T11:29:34.607Z,98213.00
2019-05-22T11:33:35.574Z,98207.00
2019-05-22T11:37:36.499Z,98209.00
2019-05-22T11:41:37.927Z,98204.00
2019-05-22T11:45:39.515Z,98199.00
2019-05-22T11:49:40.652Z,98206.00
2019-05-22T11:53:42.249Z,98204.00
2019-05-22T11:57:44.480Z,98215.00
2019-05-22T12:01:45.991Z,98202.00
2019-05-22T12:05:47.202Z,98202.00
2019-05-22T12:09:48.442Z,98210.00
2019-05-22T12:13:50.744Z,98212.00
2019-05-22T12:17:52.360Z,98210.00
2019-05-22T12:21:53.564Z,98214.00
2019-05-22T12:25:54.813Z,98203.00
2019-05-22T12:29:56.712Z,98211.00
2019-05-22T12:33:59.099Z,98208.00
2019-05-22T12:38:00.856Z,98211.00
2019-05-22T12:42:02.633Z,98204.00
2019-05-22T12:46:03.706Z,98209.00
2019-05-22T12:50:06.223Z,98212.00
2019-05-22T12:54:07.219Z,98216.00
2019-05-22T12:58:09.114Z,98205.00
2019-05-22T13:02:10.347Z,98210.00
2019-05-22T13:06:11.419Z,98200.00
2019-05-22T13:10:13.933Z,98212.00
2019-05-22T13:14:14.938Z,98215.00
2019-05-22T13:18:18.228Z,98222.00
2019-05-22T13:22:23.592Z,98227.00
2019-05-22T13:26:25.124Z,98222.00
2019-05-22T13:30:28.783Z,98223.00
2019-05-22T13:34:30.043Z,98231.00
2019-05-22T13:38:31.555Z,98232.00
2019-05-22T13:42:32.625Z,98236.00
2019-05-22T13:46:34.500Z,98246.00
2019-05-22T13:50:36.133Z,98239.00
2019-05-22T13:54:38.831Z,98228.00
2019-05-22T13:58:40.650Z,98235.00
2019-05-22T14:02:41.721Z,98225.00
2019-05-22T14:06:42.643Z,98233.00
2019-05-22T14:10:44.249Z,98234.00
2019-05-22T14:14:45.353Z,98226.00
2019-05-22T14:18:46.408Z,98227.00
2019-05-22T14:22:47.560Z,98221.00
2019-05-22T14:26:49.431Z,98216.00
2019-05-22T14:30:51.099Z,98215.00
2019-05-22T14:34:52.151Z,98225.00
2019-05-22T14:38:54.635Z,98229.00
2019-05-22T14:42:55.647Z,98230.00
2019-05-22T14:47:11.854Z,98227.00
2019-05-22T14:51:00.058Z,98232.00
2019-05-22T14:55:01.313Z,98224.00
2019-05-22T14:59:04.120Z,98227.00
2019-05-22T15:03:05.870Z,98229.00
2019-05-22T15:07:10.137Z,98224.00
2019-05-22T15:11:11.271Z,98225.00
2019-05-22T15:15:12.931Z,98223.00
2019-05-22T15:19:14.018Z,98218.00
2019-05-22T15:23:15.522Z,98223.00
2019-05-22T15:27:20.003Z,98218.00
2019-05-22T15:31:23.217Z,98214.00
2019-05-22T15:35:24.768Z,98220.00
2019-05-22T15:39:28.271Z,98217.00
2019-05-22T15:43:29.606Z,98222.00
2019-05-22T15:47:42.222Z,98222.00
2019-05-22T15:51:36.412Z,98207.00
2019-05-22T15:55:39.525Z,98211.00
2019-05-22T15:59:42.752Z,98214.00
2019-05-22T16:03:46.163Z,98218.00
2019-05-22T16:07:48.765Z,98218.00
2019-05-22T16:11:52.065Z,98206.00
2019-05-22T16:15:57.560Z,98208.00
2019-05-22T16:19:59.252Z,98201.00
2019-05-22T16:24:00.557Z,98204.00
2019-05-22T16:28:03.491Z,98207.00
2019-05-22T16:32:07.340Z,98200.00
2019-05-22T16:36:09.670Z,98198.00
2019-05-22T16:40:11.466Z,98206.00
2019-05-22T16:44:12.998Z,98197.00
2019-05-22T16:48:27.828Z,98192.00
2019-05-22T16:52:18.151Z,98200.00
2019-05-22T16:56:21.089Z,98215.00
2019-05-22T17:00:22.621Z,98202.00
2019-05-22T17:04:24.327Z,98207.00
2019-05-22T17:08:26.965Z,98203.00
2019-05-22T17:12:28.207Z,98204.00
2019-05-22T17:16:30.181Z,98208.00
2019-05-22T17:20:33.581Z,98205.00
2019-05-22T17:24:35.709Z,98202.00
2019-05-22T17:28:37.443Z,98196.00
2019-05-22T17:32:38.947Z,98208.00
2019-05-22T17:36:40.938Z,98207.00
2019-05-22T17:40:42.083Z,98204.00
2019-05-22T17:44:46.494Z,98200.00
2019-05-22T17:48:48.586Z,98208.00
2019-05-22T17:52:49.911Z,98199.00
2019-05-22T17:56:51.071Z,98199.00
2019-05-22T18:00:53.593Z,98208.00
2019-05-22T18:04:54.756Z,98205.00
2019-05-22T18:08:55.767Z,98210.00
2019-05-22T18:12:57.079Z,98207.00
2019-05-22T18:16:58.267Z,98207.00
2019-05-22T18:20:59.172Z,98205.00
2019-05-22T18:25:00.664Z,98201.00
2019-05-22T18:29:01.782Z,98204.00
2019-05-22T18:33:03.130Z,98205.00
2019-05-22T18:37:04.251Z,98203.00
2019-05-22T18:41:05.370Z,98211.00
2019-05-22T18:45:07.135Z,98209.00
2019-05-22T18:49:08.140Z,98214.00
2019-05-22T18:53:09.275Z,98222.00
2019-05-22T18:57:10.175Z,98217.00
2019-05-22T19:01:11.549Z,98215.00
2019-05-22T19:05:15.954Z,98223.00
2019-05-22T19:09:17.151Z,98220.00
2019-05-22T19:13:18.230Z,98218.00
2019-05-22T19:17:19.992Z,98228.00
2019-05-22T19:21:20.974Z,98230.00
2019-05-22T19:25:22.045Z,98226.00
2019-05-22T19:29:23.411Z,98232.00
2019-05-22T19:33:24.544Z,98238.00
2019-05-22T19:37:25.530Z,98238.00
2019-05-22T19:41:26.916Z,98240.00
2019-05-22T19:45:30.900Z,98241.00
2019-05-22T19:49:31.495Z,98253.00
2019-05-22T19:53:33.129Z,98250.00
2019-05-22T19:57:34.381Z,98246.00
2019-05-22T20:01:37.179Z,98258.00
2019-05-22T20:05:39.239Z,98250.00
2019-05-22T20:09:41.143Z,98255.00
2019-05-22T20:13:42.560Z,98245.00
2019-05-22T20:17:44.436Z,98255.00
2019-05-22T20:21:46.734Z,98256.00
2019-05-22T20:25:48.658Z,98264.00
2019-05-22T20:29:50.263Z,98266.00
2019-05-22T20:33:51.959Z,98260.00
2019-05-22T20:37:53.338Z,98258.00
2019-05-22T20:41:54.354Z,98262.00
2019-05-22T20:45:57.446Z,98266.00
2019-05-22T20:49:59.231Z,98269.00
2019-05-22T20:54:02.141Z,98265.00
2019-05-22T20:58:05.211Z,98263.00
2019-05-22T21:02:08.506Z,98265.00
2019-05-22T21:06:12.100Z,98257.00
2019-05-22T21:10:13.288Z,98257.00
2019-05-22T21:14:14.842Z,98263.00
2019-05-22T21:18:18.449Z,98260.00
2019-05-22T21:22:20.560Z,98260.00
2019-05-22T21:26:22.372Z,98268.00
2019-05-22T21:30:25.452Z,98263.00
2019-05-22T21:34:26.652Z,98269.00
2019-05-22T21:38:28.672Z,98265.00
2019-05-22T21:42:30.415Z,98264.00
2019-05-22T21:46:32.236Z,98271.00
2019-05-22T21:50:33.294Z,98268.00
2019-05-22T21:54:35.486Z,98268.00
2019-05-22T21:58:37.163Z,98271.00
2019-05-22T22:02:41.958Z,98272.00
2019-05-22T22:06:43.297Z,98271.00
2019-05-22T22:10:44.954Z,98271.00
2019-05-22T22:14:47.937Z,98270.00
2019-05-22T22:18:49.341Z,98279.00
2019-05-22T22:22:51.318Z,98271.00
2019-05-22T22:26:52.614Z,98274.00
2019-05-22T22:30:56.666Z,98270.00
2019-05-22T22:34:58.331Z,98273.00
2019-05-22T22:38:59.542Z,98279.00
2019-05-22T22:43:02.926Z,98270.00
2019-05-22T22:47:06.266Z,98265.00
2019-05-22T22:51:09.181Z,98280.00
2019-05-22T22:55:12.428Z,98278.00
2019-05-22T22:59:13.496Z,98280.00
2019-05-22T23:03:22.668Z,98267.00
2019-05-22T23:07:26.176Z,98274.00
2019-05-22T23:11:27.868Z,98273.00
2019-05-22T23:15:29.333Z,98268.00
2019-05-22T23:19:37.897Z,98278.00
2019-05-22T23:23:40.159Z,98278.00
2019-05-22T23:27:42.127Z,98284.00
2019-05-22T23:31:43.613Z,98269.00
2019-05-22T23:35:45.413Z,98271.00
2019-05-22T23:39:47.092Z,98272.00
2019-05-22T23:43:48.159Z,98272.00
2019-05-22T23:48:03.142Z,98281.00
2019-05-22T23:52:06.152Z,98283.00
2019-05-22T23:56:08.253Z,98284.00
